createdAt,value
2023-01-23T00:01:15.290Z,0.60
2023-01-23T00:03:42.468Z,0.60
2023-01-23T00:06:11.458Z,0.60
2023-01-23T00:08:38.608Z,0.60
2023-01-23T00:11:06.573Z,0.60
2023-01-23T00:13:34.254Z,0.60
2023-01-23T00:16:04.777Z,0.70
2023-01-23T00:18:31.472Z,0.70
2023-01-23T00:20:58.755Z,0.60
2023-01-23T00:23:25.435Z,0.60
2023-01-23T00:25:52.101Z,0.60
2023-01-23T00:28:18.839Z,0.60
2023-01-23T00:30:45.555Z,0.60
2023-01-23T00:33:12.380Z,0.50
2023-01-23T00:35:39.000Z,0.50
2023-01-23T00:38:05.832Z,0.50
2023-01-23T00:40:33.593Z,0.50
2023-01-23T00:43:00.297Z,0.50
2023-01-23T00:45:27.192Z,0.40
2023-01-23T00:47:53.891Z,0.40
2023-01-23T00:50:20.761Z,0.40
2023-01-23T00:52:47.620Z,0.50
2023-01-23T00:55:14.443Z,0.50
2023-01-23T00:57:41.129Z,0.50
2023-01-23T01:00:08.128Z,0.60
2023-01-23T01:02:35.325Z,0.60
2023-01-23T01:05:02.054Z,0.60
2023-01-23T01:07:28.764Z,0.60
2023-01-23T01:09:55.431Z,0.60
2023-01-23T01:12:22.213Z,0.60
2023-01-23T01:14:49.011Z,0.60
2023-01-23T01:17:15.686Z,0.70
2023-01-23T01:19:42.418Z,0.60
2023-01-23T01:22:09.163Z,0.70
2023-01-23T01:24:35.850Z,0.70
2023-01-23T01:27:02.512Z,0.70
2023-01-23T01:29:29.162Z,0.70
2023-01-23T01:31:55.908Z,0.70
2023-01-23T01:34:23.689Z,0.70
2023-01-23T01:36:51.626Z,0.70
2023-01-23T01:39:18.929Z,0.70
2023-01-23T01:41:46.096Z,0.60
2023-01-23T01:44:17.810Z,0.60
2023-01-23T01:46:49.123Z,0.70
2023-01-23T01:49:18.331Z,0.60
2023-01-23T01:51:50.732Z,0.60
2023-01-23T01:54:25.059Z,0.60
2023-01-23T01:56:54.010Z,0.50
2023-01-23T01:59:22.577Z,0.50
2023-01-23T02:01:52.426Z,0.50
2023-01-23T02:04:19.672Z,0.50
2023-01-23T02:06:46.831Z,0.50
2023-01-23T02:09:20.224Z,0.50
2023-01-23T02:11:48.634Z,0.50
2023-01-23T02:14:18.672Z,0.50
2023-01-23T02:16:46.538Z,0.50
2023-01-23T02:19:22.029Z,0.40
2023-01-23T02:21:49.770Z,0.40
2023-01-23T02:24:22.624Z,0.40
2023-01-23T02:26:49.243Z,0.40
2023-01-23T02:29:16.434Z,0.40
2023-01-23T02:31:56.199Z,0.40
2023-01-23T02:34:26.073Z,0.40
2023-01-23T02:36:57.768Z,0.40
2023-01-23T02:39:24.908Z,0.50
2023-01-23T02:41:54.442Z,0.40
2023-01-23T02:44:31.717Z,0.50
2023-01-23T02:47:04.907Z,0.40
2023-01-23T02:49:31.888Z,0.40
2023-01-23T02:51:58.574Z,0.40
2023-01-23T02:54:25.694Z,0.40
2023-01-23T02:56:52.551Z,0.40
2023-01-23T02:59:40.665Z,0.40
2023-01-23T03:02:08.546Z,0.40
2023-01-23T03:04:35.264Z,0.40
2023-01-23T03:07:02.036Z,0.40
2023-01-23T03:09:29.099Z,0.40
2023-01-23T03:11:56.196Z,0.40
2023-01-23T03:14:23.593Z,0.50
2023-01-23T03:16:51.554Z,0.40
2023-01-23T03:19:20.666Z,0.40
2023-01-23T03:21:47.417Z,0.40
2023-01-23T03:24:15.063Z,0.40
2023-01-23T03:26:42.555Z,0.40
2023-01-23T03:29:33.552Z,0.40
2023-01-23T03:32:00.593Z,0.40
2023-01-23T03:34:27.895Z,0.40
2023-01-23T03:36:54.610Z,0.40
2023-01-23T03:39:43.112Z,0.40
2023-01-23T03:42:09.890Z,0.50
2023-01-23T03:44:37.122Z,0.50
2023-01-23T03:47:04.065Z,0.50
2023-01-23T03:49:31.374Z,0.50
2023-01-23T03:51:59.417Z,0.50
2023-01-23T03:54:26.691Z,0.50
2023-01-23T03:56:54.052Z,0.50
2023-01-23T03:59:52.603Z,0.50
2023-01-23T04:02:21.312Z,0.50
2023-01-23T04:04:48.041Z,0.50
2023-01-23T04:07:14.753Z,0.50
2023-01-23T04:09:43.386Z,0.60
2023-01-23T04:12:10.018Z,0.60
2023-01-23T04:14:40.578Z,0.60
2023-01-23T04:17:07.990Z,0.60
2023-01-23T04:19:35.178Z,0.70
2023-01-23T04:22:02.295Z,0.60
2023-01-23T04:24:33.034Z,0.70
2023-01-23T04:26:59.985Z,0.70
2023-01-23T04:29:28.224Z,0.70
2023-01-23T04:31:54.934Z,0.70
2023-01-23T04:34:22.143Z,0.70
2023-01-23T04:36:50.619Z,0.70
2023-01-23T04:39:17.686Z,0.70
2023-01-23T04:41:48.055Z,0.70
2023-01-23T04:44:27.356Z,0.70
2023-01-23T04:47:16.545Z,0.70
2023-01-23T04:49:43.712Z,0.70
2023-01-23T04:52:10.360Z,0.70
2023-01-23T04:54:41.007Z,0.70
2023-01-23T04:57:07.810Z,0.70
2023-01-23T04:59:34.599Z,0.80
2023-01-23T05:02:02.439Z,0.70
2023-01-23T05:04:36.816Z,0.80
2023-01-23T05:07:03.587Z,0.70
2023-01-23T05:09:37.336Z,0.70
2023-01-23T05:12:04.512Z,0.70
2023-01-23T05:14:33.822Z,0.80
2023-01-23T05:17:00.520Z,0.80
2023-01-23T05:19:34.577Z,0.80
2023-01-23T05:22:04.359Z,0.70
2023-01-23T05:24:31.191Z,0.80
2023-01-23T05:26:58.810Z,0.70
2023-01-23T05:29:29.223Z,0.80
2023-01-23T05:32:02.261Z,0.80
2023-01-23T05:34:37.847Z,0.80
2023-01-23T05:37:12.969Z,0.80
2023-01-23T05:39:40.633Z,0.70
2023-01-23T05:42:07.857Z,0.70
2023-01-23T05:44:37.403Z,0.70
2023-01-23T05:47:09.755Z,0.70
2023-01-23T05:49:36.441Z,0.70
2023-01-23T05:52:03.152Z,0.70
2023-01-23T05:54:31.934Z,0.80
2023-01-23T05:56:58.589Z,0.70
2023-01-23T05:59:44.480Z,0.70
2023-01-23T06:02:41.910Z,0.70
2023-01-23T06:05:11.612Z,0.70
2023-01-23T06:08:02.624Z,0.60
2023-01-23T06:10:30.031Z,0.60
2023-01-23T06:12:56.880Z,0.60
2023-01-23T06:15:23.520Z,0.60
2023-01-23T06:17:53.748Z,0.60
2023-01-23T06:20:20.824Z,0.60
2023-01-23T06:22:49.396Z,0.60
2023-01-23T06:25:16.257Z,0.60
2023-01-23T06:27:45.290Z,0.60
2023-01-23T06:30:13.279Z,0.60
2023-01-23T06:32:42.197Z,0.60
2023-01-23T06:35:10.398Z,0.70
2023-01-23T06:37:40.074Z,0.70
2023-01-23T06:40:13.214Z,0.70
2023-01-23T06:42:44.265Z,0.70
2023-01-23T06:45:11.712Z,0.70
2023-01-23T06:47:38.685Z,0.70
2023-01-23T06:50:05.720Z,0.70
2023-01-23T06:52:37.083Z,0.70
2023-01-23T06:55:03.927Z,0.70
2023-01-23T06:57:30.736Z,0.70
2023-01-23T06:59:58.025Z,0.70
2023-01-23T07:02:25.310Z,0.70
2023-01-23T07:04:52.197Z,0.70
2023-01-23T07:07:19.811Z,0.70
2023-01-23T07:09:48.568Z,0.70
2023-01-23T07:12:19.360Z,0.70
2023-01-23T07:14:46.916Z,0.70
2023-01-23T07:17:18.456Z,0.70
2023-01-23T07:19:45.144Z,0.60
2023-01-23T07:22:19.201Z,0.70
2023-01-23T07:24:46.164Z,0.60
2023-01-23T07:27:12.822Z,0.70
2023-01-23T07:29:39.720Z,0.60
2023-01-23T07:32:06.382Z,0.60
2023-01-23T07:34:33.106Z,0.60
2023-01-23T07:36:59.969Z,0.60
2023-01-23T07:39:26.679Z,0.60
2023-01-23T07:41:53.350Z,0.60
2023-01-23T07:44:21.235Z,0.60
2023-01-23T07:46:48.175Z,0.60
2023-01-23T07:49:15.263Z,0.60
2023-01-23T07:51:41.973Z,0.60
2023-01-23T07:54:08.937Z,0.60
2023-01-23T07:56:35.531Z,0.60
2023-01-23T07:59:02.234Z,0.60
2023-01-23T08:01:28.875Z,0.60
2023-01-23T08:03:56.435Z,0.60
2023-01-23T08:06:23.133Z,0.70
2023-01-23T08:08:50.416Z,0.70
2023-01-23T08:11:17.095Z,0.70
2023-01-23T08:13:43.804Z,0.70
2023-01-23T08:16:12.720Z,0.70
2023-01-23T08:18:40.260Z,0.70
2023-01-23T08:21:06.897Z,0.70
2023-01-23T08:23:34.202Z,0.70
2023-01-23T08:26:02.147Z,0.70
2023-01-23T08:28:28.816Z,0.80
2023-01-23T08:30:55.613Z,0.80
2023-01-23T08:33:22.424Z,0.80
2023-01-23T08:35:49.999Z,0.80
2023-01-23T08:38:18.123Z,0.80
2023-01-23T08:40:45.300Z,0.90
2023-01-23T08:43:13.903Z,0.90
2023-01-23T08:45:41.084Z,0.90
2023-01-23T08:48:08.502Z,1.00
2023-01-23T08:50:35.148Z,1.00
2023-01-23T08:53:01.845Z,1.00
2023-01-23T08:55:29.007Z,1.00
2023-01-23T08:57:55.762Z,1.00
2023-01-23T09:00:22.801Z,1.00
2023-01-23T09:02:49.663Z,1.10
2023-01-23T09:05:16.344Z,1.10
2023-01-23T09:07:43.133Z,1.10
2023-01-23T09:10:10.348Z,1.10
2023-01-23T09:12:37.041Z,1.10
2023-01-23T09:15:03.766Z,1.20
2023-01-23T09:17:30.472Z,1.20
2023-01-23T09:20:00.423Z,1.20
2023-01-23T09:22:27.276Z,1.20
2023-01-23T09:24:53.923Z,1.20
2023-01-23T09:27:20.641Z,1.20
2023-01-23T09:29:47.247Z,1.20
2023-01-23T09:32:13.907Z,1.20
2023-01-23T09:34:40.555Z,1.20
2023-01-23T09:37:07.250Z,1.20
2023-01-23T09:39:33.947Z,1.30
2023-01-23T09:42:08.443Z,1.30
2023-01-23T09:44:39.941Z,1.30
2023-01-23T09:47:10.604Z,1.40
2023-01-23T09:49:37.292Z,1.40
2023-01-23T09:52:12.073Z,1.50
2023-01-23T09:54:47.067Z,1.50
2023-01-23T09:57:26.143Z,1.60
2023-01-23T10:00:00.745Z,1.70
2023-01-23T10:02:27.805Z,1.70
2023-01-23T10:04:55.098Z,1.60
2023-01-23T10:07:48.208Z,1.60
2023-01-23T10:10:33.977Z,1.70
2023-01-23T10:13:08.032Z,1.70
2023-01-23T10:15:57.602Z,1.70
2023-01-23T10:18:29.150Z,1.80
2023-01-23T10:21:04.942Z,1.80
2023-01-23T10:23:39.766Z,1.90
2023-01-23T10:26:10.875Z,2.00
2023-01-23T10:28:39.316Z,2.00
2023-01-23T10:31:23.534Z,2.00
2023-01-23T10:33:57.112Z,2.10
2023-01-23T10:36:42.052Z,2.10
2023-01-23T10:39:16.342Z,2.10
2023-01-23T10:41:44.486Z,2.10
2023-01-23T10:44:16.988Z,2.20
2023-01-23T10:46:48.204Z,2.20
2023-01-23T10:49:28.455Z,2.30
2023-01-23T10:51:57.653Z,2.30
2023-01-23T10:54:33.831Z,2.20
2023-01-23T10:57:02.051Z,2.30
2023-01-23T10:59:36.208Z,2.30
2023-01-23T11:02:15.923Z,2.30
2023-01-23T11:04:43.979Z,2.30
2023-01-23T11:07:24.111Z,2.30
2023-01-23T11:09:55.518Z,2.40
2023-01-23T11:12:23.984Z,2.30
2023-01-23T11:14:51.635Z,2.30
2023-01-23T11:17:23.205Z,2.30
2023-01-23T11:19:54.346Z,2.30
2023-01-23T11:22:31.691Z,2.30
2023-01-23T11:24:58.801Z,2.30
2023-01-23T11:27:28.130Z,2.20
2023-01-23T11:30:06.722Z,2.30
2023-01-23T11:32:35.465Z,2.30
2023-01-23T11:35:31.728Z,2.30
2023-01-23T11:38:00.491Z,2.30
2023-01-23T11:40:27.165Z,2.40
2023-01-23T11:42:54.295Z,2.40
2023-01-23T11:45:38.362Z,2.40
2023-01-23T11:48:11.683Z,2.40
2023-01-23T11:50:49.903Z,2.30
2023-01-23T11:53:36.740Z,2.30
2023-01-23T11:56:21.289Z,2.30
2023-01-23T11:58:50.245Z,2.30
2023-01-23T12:01:17.247Z,2.40
2023-01-23T12:03:49.918Z,2.40
2023-01-23T12:06:34.249Z,2.30
2023-01-23T12:09:30.466Z,2.30
2023-01-23T12:12:06.448Z,2.30
2023-01-23T12:14:42.116Z,2.30
2023-01-23T12:17:15.001Z,2.30
2023-01-23T12:20:10.994Z,2.30
2023-01-23T12:22:47.376Z,2.40
2023-01-23T12:25:43.916Z,2.40
2023-01-23T12:28:22.746Z,2.40
2023-01-23T12:31:04.665Z,2.30
2023-01-23T12:33:41.542Z,2.40
2023-01-23T12:36:11.254Z,2.30
2023-01-23T12:38:48.601Z,2.30
2023-01-23T12:41:20.960Z,2.30
2023-01-23T12:43:55.059Z,2.30
2023-01-23T12:46:40.962Z,2.30
2023-01-23T12:49:07.631Z,2.20
2023-01-23T12:51:36.897Z,2.20
2023-01-23T12:54:07.091Z,2.20
2023-01-23T12:56:35.923Z,2.20
2023-01-23T12:59:09.132Z,2.20
2023-01-23T13:01:42.574Z,2.20
2023-01-23T13:04:15.194Z,2.20
2023-01-23T13:06:48.394Z,2.10
2023-01-23T13:09:18.478Z,2.10
2023-01-23T13:12:04.395Z,2.20
2023-01-23T13:14:36.750Z,2.20
2023-01-23T13:17:26.388Z,2.20
2023-01-23T13:20:11.907Z,2.20
2023-01-23T13:22:38.726Z,2.10
2023-01-23T13:25:15.065Z,2.10
2023-01-23T13:27:52.862Z,2.10
2023-01-23T13:30:36.309Z,2.10
2023-01-23T13:33:04.056Z,2.10
2023-01-23T13:35:39.952Z,2.10
2023-01-23T13:38:22.105Z,2.10
2023-01-23T13:41:07.252Z,2.10
2023-01-23T13:43:51.723Z,2.10
2023-01-23T13:46:37.388Z,2.00
2023-01-23T14:24:27.367Z,1.90
2023-01-23T14:27:02.566Z,1.90
2023-01-23T14:29:31.304Z,1.90
2023-01-23T14:31:58.044Z,1.90
2023-01-23T14:34:26.223Z,1.90
2023-01-23T14:36:52.832Z,1.90
2023-01-23T14:39:30.170Z,1.90
2023-01-23T14:42:02.067Z,1.90
2023-01-23T14:44:43.549Z,1.80
2023-01-23T14:47:15.035Z,1.80
2023-01-23T14:49:41.961Z,1.80
2023-01-23T14:52:20.471Z,1.80
2023-01-23T14:54:53.786Z,1.80
2023-01-23T14:57:25.514Z,1.80
2023-01-23T14:59:54.598Z,1.80
2023-01-23T15:02:24.468Z,1.80
2023-01-23T15:05:10.520Z,1.80
2023-01-23T15:07:46.489Z,1.80
2023-01-23T15:10:14.814Z,1.80
2023-01-23T15:12:47.394Z,1.80
2023-01-23T15:15:17.171Z,1.80
2023-01-23T15:17:44.281Z,1.70
2023-01-23T15:20:46.679Z,1.70
2023-01-23T15:23:20.695Z,1.70
2023-01-23T15:25:54.638Z,1.60
2023-01-23T15:28:30.403Z,1.60
2023-01-23T15:30:57.443Z,1.60
2023-01-23T15:33:25.835Z,1.60
2023-01-23T15:35:52.837Z,1.60
2023-01-23T15:38:19.576Z,1.60
2023-01-23T15:40:46.309Z,1.60
2023-01-23T15:43:15.662Z,1.50
2023-01-23T15:45:42.299Z,1.60
2023-01-23T15:48:08.981Z,1.50
2023-01-23T15:50:35.904Z,1.50
2023-01-23T15:53:02.580Z,1.50
2023-01-23T15:55:29.327Z,1.50
2023-01-23T15:57:56.352Z,1.50
2023-01-23T16:00:27.068Z,1.50
2023-01-23T16:02:57.264Z,1.50
2023-01-23T16:05:33.437Z,1.50
2023-01-23T16:08:04.372Z,1.50
2023-01-23T16:10:33.160Z,1.50
2023-01-23T16:12:59.968Z,1.50
2023-01-23T16:15:27.980Z,1.40
2023-01-23T16:17:54.750Z,1.40
2023-01-23T16:20:29.495Z,1.40
2023-01-23T16:22:59.308Z,1.40
2023-01-23T16:25:43.084Z,1.40
2023-01-23T16:28:24.093Z,1.40
2023-01-23T16:30:51.803Z,1.40
2023-01-23T16:33:19.113Z,1.40
2023-01-23T16:35:46.094Z,1.40
2023-01-23T16:38:26.825Z,1.40
2023-01-23T16:40:54.198Z,1.40
2023-01-23T16:43:21.229Z,1.40
2023-01-23T16:45:48.416Z,1.40
2023-01-23T16:48:21.809Z,1.40
2023-01-23T16:50:54.226Z,1.40
2023-01-23T16:53:20.864Z,1.40
2023-01-23T16:55:47.609Z,1.40
2023-01-23T16:58:19.406Z,1.40
2023-01-23T17:00:46.416Z,1.40
2023-01-23T17:03:19.972Z,1.40
2023-01-23T17:05:46.642Z,1.30
2023-01-23T17:08:17.808Z,1.30
2023-01-23T17:10:46.761Z,1.30
2023-01-23T17:13:14.963Z,1.30
2023-01-23T17:15:41.997Z,1.40
2023-01-23T17:18:17.531Z,1.30
2023-01-23T17:20:44.338Z,1.30
2023-01-23T17:23:13.086Z,1.30
2023-01-23T17:25:59.177Z,1.20
2023-01-23T17:28:27.280Z,1.20
2023-01-23T17:30:54.807Z,1.20
2023-01-23T17:33:23.117Z,1.20
2023-01-23T17:35:50.224Z,1.20
2023-01-23T17:38:18.039Z,1.20
2023-01-23T17:40:45.289Z,1.20
2023-01-23T17:43:13.391Z,1.20
2023-01-23T17:45:41.216Z,1.20
2023-01-23T17:48:13.013Z,1.20
2023-01-23T17:50:41.261Z,1.20
2023-01-23T17:53:08.988Z,1.20
2023-01-23T17:55:35.659Z,1.20
2023-01-23T17:58:02.338Z,1.20
2023-01-23T18:00:29.308Z,1.20
2023-01-23T18:02:59.773Z,1.20
2023-01-23T18:05:27.068Z,1.20
2023-01-23T18:07:54.560Z,1.20
2023-01-23T18:10:22.110Z,1.20
2023-01-23T18:12:59.690Z,1.20
2023-01-23T18:15:38.954Z,1.20
2023-01-23T18:18:19.736Z,1.20
2023-01-23T18:20:46.960Z,1.20
2023-01-23T18:23:13.899Z,1.20
2023-01-23T18:25:42.692Z,1.20
2023-01-23T18:28:12.495Z,1.10
2023-01-23T18:30:50.853Z,1.20
2023-01-23T18:33:37.758Z,1.20
2023-01-23T18:36:07.469Z,1.20
2023-01-23T18:38:37.777Z,1.20
2023-01-23T18:41:19.817Z,1.20
2023-01-23T18:43:51.662Z,1.20
2023-01-23T18:46:20.685Z,1.20
2023-01-23T18:48:48.074Z,1.20
2023-01-23T18:51:21.335Z,1.20
2023-01-23T18:54:07.178Z,1.20
2023-01-23T18:56:40.282Z,1.10
2023-01-23T18:59:14.320Z,1.10
2023-01-23T19:01:53.469Z,1.10
2023-01-23T19:04:39.009Z,1.00
2023-01-23T19:07:14.152Z,1.10
2023-01-23T19:09:46.349Z,1.10
2023-01-23T19:12:24.190Z,1.10
2023-01-23T19:14:54.923Z,1.00
2023-01-23T19:17:27.907Z,1.10
2023-01-23T19:19:56.868Z,1.10
2023-01-23T19:22:24.302Z,1.10
2023-01-23T19:24:51.259Z,1.10
2023-01-23T19:27:20.595Z,1.10
2023-01-23T19:29:47.310Z,1.10
2023-01-23T19:32:14.133Z,1.20
2023-01-23T19:34:42.892Z,1.20
2023-01-23T19:37:09.567Z,1.10
2023-01-23T19:39:36.245Z,1.20
2023-01-23T19:42:03.062Z,1.20
2023-01-23T19:44:30.260Z,1.20
2023-01-23T19:46:57.003Z,1.20
2023-01-23T19:49:25.097Z,1.20
2023-01-23T19:51:51.813Z,1.20
2023-01-23T19:54:19.124Z,1.20
2023-01-23T19:56:45.751Z,1.20
2023-01-23T19:59:13.175Z,1.20
2023-01-23T20:01:43.392Z,1.10
2023-01-23T20:04:15.868Z,1.10
2023-01-23T20:06:44.338Z,1.10
2023-01-23T20:09:11.513Z,1.10
2023-01-23T20:11:38.143Z,1.10
2023-01-23T20:14:04.944Z,1.10
2023-01-23T20:16:31.720Z,1.10
2023-01-23T20:18:58.376Z,1.10
2023-01-23T20:21:25.368Z,1.10
2023-01-23T20:23:52.197Z,1.10
2023-01-23T20:26:20.193Z,1.10
2023-01-23T20:28:47.617Z,1.10
2023-01-23T20:31:14.514Z,1.10
2023-01-23T20:33:41.531Z,1.10
2023-01-23T20:36:08.365Z,1.10
2023-01-23T20:38:35.009Z,1.10
2023-01-23T20:41:02.495Z,1.10
2023-01-23T20:43:29.158Z,1.10
2023-01-23T20:45:55.838Z,1.00
2023-01-23T20:48:22.633Z,1.00
2023-01-23T20:50:56.508Z,1.10
2023-01-23T20:53:29.748Z,1.10
2023-01-23T20:56:04.577Z,1.10
2023-01-23T20:58:50.238Z,1.10
2023-01-23T21:01:20.720Z,1.10
2023-01-23T21:03:48.352Z,1.10
2023-01-23T21:06:15.448Z,1.10
2023-01-23T21:08:42.294Z,1.10
2023-01-23T21:11:10.511Z,1.10
2023-01-23T21:13:37.476Z,1.10
2023-01-23T21:16:06.842Z,1.10
2023-01-23T21:18:37.081Z,1.10
2023-01-23T21:21:07.475Z,1.10
2023-01-23T21:23:35.423Z,1.10
2023-01-23T21:26:02.827Z,1.10
2023-01-23T21:28:30.855Z,1.10
2023-01-23T21:30:57.683Z,1.10
2023-01-23T21:33:24.460Z,1.10
2023-01-23T21:35:52.120Z,1.10
2023-01-23T21:38:18.798Z,1.00
2023-01-23T21:40:45.433Z,1.00
2023-01-23T21:43:12.174Z,1.00
2023-01-23T21:45:38.808Z,1.00
2023-01-23T21:48:05.643Z,1.00
2023-01-23T21:50:32.290Z,1.00
2023-01-23T21:52:59.001Z,1.10
2023-01-23T21:55:26.155Z,1.10
2023-01-23T21:57:52.815Z,1.10
2023-01-23T22:00:38.255Z,1.10
2023-01-23T22:03:04.859Z,1.10
2023-01-23T22:05:35.643Z,1.10
2023-01-23T22:08:03.256Z,1.10
2023-01-23T22:10:30.218Z,1.10
2023-01-23T22:12:57.276Z,1.10
2023-01-23T22:15:24.376Z,1.10
2023-01-23T22:17:51.247Z,1.10
2023-01-23T22:20:18.286Z,1.00
2023-01-23T22:22:44.937Z,1.00
2023-01-23T22:25:11.789Z,1.00
2023-01-23T22:27:38.457Z,1.00
2023-01-23T22:30:05.571Z,1.10
2023-01-23T22:32:32.813Z,1.10
2023-01-23T22:34:59.477Z,1.10
2023-01-23T22:37:26.128Z,1.10
2023-01-23T22:39:53.304Z,1.10
2023-01-23T22:42:20.985Z,1.10
2023-01-23T22:44:47.654Z,1.10
2023-01-23T22:47:14.705Z,1.00
2023-01-23T22:49:43.519Z,1.00
2023-01-23T22:52:10.330Z,1.00
2023-01-23T22:54:37.026Z,1.00
2023-01-23T22:57:03.804Z,1.00
2023-01-23T22:59:30.704Z,1.00
2023-01-23T23:01:57.460Z,1.00
2023-01-23T23:04:24.107Z,1.00
2023-01-23T23:06:50.925Z,1.00
2023-01-23T23:09:17.748Z,0.90
2023-01-23T23:11:47.360Z,1.00
2023-01-23T23:14:14.123Z,0.90
2023-01-23T23:16:41.020Z,0.90
2023-01-23T23:19:07.866Z,0.90
2023-01-23T23:21:36.096Z,0.90
2023-01-23T23:24:04.823Z,1.00
2023-01-23T23:26:31.951Z,0.90
2023-01-23T23:28:59.595Z,0.90
2023-01-23T23:31:26.758Z,0.90
2023-01-23T23:33:54.313Z,0.90
2023-01-23T23:36:20.983Z,0.90
2023-01-23T23:38:47.666Z,0.90
2023-01-23T23:41:15.694Z,1.00
2023-01-23T23:43:42.794Z,1.00
2023-01-23T23:46:10.194Z,1.00
2023-01-23T23:48:37.457Z,0.90
2023-01-23T23:51:05.702Z,1.00
2023-01-23T23:53:32.916Z,0.90
2023-01-23T23:55:59.651Z,0.90
2023-01-23T23:58:26.350Z,0.90
